Time;durP1;ratioP1;P1;durP2;ratioP2;P2;SDS_P1;SDS_P2;PMS_P1;PMS_P2;Temp;Humidity;BMP_temperature;BMP_pressure;BME280_temperature;BME280_humidity;BME280_pressure;Samples;Min_cycle;Max_cycle;Signal;HPM_P1;HPM_P2
2021/12/17 00:07:23;;;;;;;;;;;10.10;65.60;;;;;;5073832;28;19913;-70
2021/12/17 00:09:48;;;;;;;;;;;10.00;65.50;;;;;;5073739;28;19991;-69
2021/12/17 00:12:15;;;;;;;;;;;10.00;65.50;;;;;;5073775;28;19926;-69
2021/12/17 00:14:43;;;;;;;;;;;10.00;65.60;;;;;;5059196;28;20422;-69
2021/12/17 00:17:12;;;;;;;;;;;10.00;65.70;;;;;;5053635;28;19917;-69
2021/12/17 00:52:26;;;;;;;;;;;10.30;66.20;;;;;;5053256;28;20377;-69
2021/12/17 00:54:52;;;;;;;;;;;10.30;66.20;;;;;;5066828;28;19919;-69
2021/12/17 00:57:19;;;;;;;;;;;10.40;66.30;;;;;;5072944;28;19909;-68
2021/12/17 00:59:46;;;;;;;;;;;10.40;66.10;;;;;;5072767;28;19909;-68
2021/12/17 01:02:13;;;;;;;;;;;10.40;66.10;;;;;;5072709;28;19912;-69
2021/12/17 01:04:40;;;;;;;;;;;10.40;65.90;;;;;;5060036;28;19923;-69
2021/12/17 01:07:06;;;;;;;;;;;10.40;65.90;;;;;;5052735;28;19951;-69
2021/12/17 01:09:32;;;;;;;;;;;10.50;65.90;;;;;;5052677;28;19909;-69
2021/12/17 01:11:57;;;;;;;;;;;10.50;65.80;;;;;;5051323;28;19912;-69
2021/12/17 01:14:24;;;;;;;;;;;10.50;65.80;;;;;;5062075;28;19955;-69
2021/12/17 01:16:51;;;;;;;;;;;10.50;65.80;;;;;;5072264;28;20007;-69
2021/12/17 01:25:01;;;;;;;;;;;10.50;65.60;;;;;;5054326;28;19923;-69
2021/12/17 01:35:41;;;;;;;;;;;10.50;65.70;;;;;;5072010;28;20142;-69
2021/12/17 01:41:03;;;;;;;;;;;10.60;65.60;;;;;;5072373;28;19909;-69
2021/12/17 01:43:27;;;;;;;;;;;10.50;65.40;;;;;;5070495;28;19913;-69
2021/12/17 01:45:53;;;;;;;;;;;10.60;65.50;;;;;;5051964;28;20550;-68
2021/12/17 01:48:25;;;;;;;;;;;10.60;65.50;;;;;;5051977;28;20231;-69
2021/12/17 01:56:49;;;;;;;;;;;10.50;65.30;;;;;;5072008;28;20384;-69
2021/12/17 01:59:21;;;;;;;;;;;10.50;65.30;;;;;;5071806;28;19963;-69
2021/12/17 02:01:48;;;;;;;;;;;10.50;65.20;;;;;;5070627;28;19909;-69
2021/12/17 02:04:13;;;;;;;;;;;10.50;65.10;;;;;;5064321;28;20297;-68
2021/12/17 02:06:39;;;;;;;;;;;10.40;65.00;;;;;;5051815;28;19909;-68
2021/12/17 02:20:57;;;;;;;;;;;10.30;64.80;;;;;;5094799;28;19999;-68
2021/12/17 02:31:37;;;;;;;;;;;10.30;64.90;;;;;;5074319;28;20046;-68
2021/12/17 02:34:10;;;;;;;;;;;10.30;65.00;;;;;;5074271;28;19944;-68
2021/12/17 02:36:38;;;;;;;;;;;10.30;64.90;;;;;;5082543;28;19995;-68
2021/12/17 02:39:34;;;;;;;;;;;10.30;64.90;;;;;;5079114;28;19913;-68
2021/12/17 02:47:19;;;;;;;;;;;10.30;64.90;;;;;;5073910;28;19959;-68
2021/12/17 02:49:45;;;;;;;;;;;10.30;64.60;;;;;;5059384;28;19949;-67
2021/12/17 02:52:12;;;;;;;;;;;10.20;64.40;;;;;;5076055;28;19916;-68
2021/12/17 02:54:37;;;;;;;;;;;10.20;64.40;;;;;;5075997;28;19958;-68
2021/12/17 02:57:04;;;;;;;;;;;10.20;64.40;;;;;;5075928;28;19908;-68
2021/12/17 02:59:31;;;;;;;;;;;10.20;64.30;;;;;;5075783;28;19913;-68
2021/12/17 03:01:57;;;;;;;;;;;10.20;64.40;;;;;;5075568;28;20298;-68
2021/12/17 03:04:23;;;;;;;;;;;10.20;64.40;;;;;;5074294;28;19919;-67
2021/12/17 03:06:49;;;;;;;;;;;10.20;64.30;;;;;;5075732;28;19908;-68
2021/12/17 03:09:19;;;;;;;;;;;10.20;64.20;;;;;;5074429;28;19916;-68
2021/12/17 03:11:45;;;;;;;;;;;10.20;64.20;;;;;;5075731;28;20278;-68
2021/12/17 03:14:10;;;;;;;;;;;10.20;64.20;;;;;;5075316;28;19913;-68
2021/12/17 03:16:42;;;;;;;;;;;10.20;64.30;;;;;;5073634;28;19920;-68
2021/12/17 03:23:25;;;;;;;;;;;10.20;64.20;;;;;;5075634;28;19912;-68
2021/12/17 03:24:41;;;;;;;;;;;10.20;64.20;;;;;;5064295;28;20381;-68
2021/12/17 03:27:06;;;;;;;;;;;10.20;64.20;;;;;;5055569;28;19913;-67
2021/12/17 03:29:32;;;;;;;;;;;10.20;64.30;;;;;;5056179;28;19915;-67
2021/12/17 03:31:59;;;;;;;;;;;10.10;64.20;;;;;;5055259;28;20367;-67
2021/12/17 03:34:24;;;;;;;;;;;10.10;64.10;;;;;;5055224;28;20408;-67
2021/12/17 03:36:54;;;;;;;;;;;10.10;64.20;;;;;;5055156;28;19909;-67
2021/12/17 03:39:21;;;;;;;;;;;10.10;64.20;;;;;;5055129;28;19909;-67
2021/12/17 03:41:51;;;;;;;;;;;10.20;64.20;;;;;;5074120;28;19912;-67
2021/12/17 03:44:17;;;;;;;;;;;10.20;64.20;;;;;;5074941;28;20369;-67
2021/12/17 03:46:46;;;;;;;;;;;10.20;64.20;;;;;;5075013;28;19975;-67
2021/12/17 03:49:12;;;;;;;;;;;10.20;64.20;;;;;;5073695;28;20026;-67
2021/12/17 03:51:48;;;;;;;;;;;10.20;64.20;;;;;;5075040;28;19915;-67
2021/12/17 03:54:14;;;;;;;;;;;10.20;64.80;;;;;;5073361;28;19919;-68
2021/12/17 03:56:40;;;;;;;;;;;10.20;64.00;;;;;;5074862;28;19909;-67
2021/12/17 03:59:10;;;;;;;;;;;10.20;63.90;;;;;;5074802;28;20255;-68
2021/12/17 04:01:39;;;;;;;;;;;10.20;63.90;;;;;;5074800;28;19915;-67
2021/12/17 04:04:05;;;;;;;;;;;10.20;63.90;;;;;;5074546;28;19912;-67
2021/12/17 04:06:31;;;;;;;;;;;10.20;63.90;;;;;;5072958;28;19926;-67
2021/12/17 04:08:57;;;;;;;;;;;10.20;63.70;;;;;;5074595;28;19904;-67
2021/12/17 04:11:22;;;;;;;;;;;10.20;63.80;;;;;;5073265;28;19908;-67
2021/12/17 04:13:55;;;;;;;;;;;10.20;63.80;;;;;;5074207;28;19909;-67
2021/12/17 04:16:25;;;;;;;;;;;10.20;63.70;;;;;;5074294;28;19924;-68
2021/12/17 04:18:51;;;;;;;;;;;10.20;63.80;;;;;;5061919;28;19913;-67
2021/12/17 04:21:16;;;;;;;;;;;10.20;63.80;;;;;;5054326;28;19974;-67
2021/12/17 04:23:43;;;;;;;;;;;10.20;63.60;;;;;;5054024;28;20369;-68
2021/12/17 04:26:09;;;;;;;;;;;10.20;63.40;;;;;;5054224;28;19909;-67
2021/12/17 04:28:40;;;;;;;;;;;10.20;63.40;;;;;;5054212;28;19915;-67
2021/12/17 04:31:07;;;;;;;;;;;10.20;63.40;;;;;;5064574;28;19914;-68
2021/12/17 04:33:32;;;;;;;;;;;10.20;63.40;;;;;;5073601;28;19908;-68
2021/12/17 04:35:58;;;;;;;;;;;10.20;63.50;;;;;;5073847;28;20385;-67
2021/12/17 04:38:26;;;;;;;;;;;10.20;63.40;;;;;;5073848;28;19909;-68
2021/12/17 04:40:53;;;;;;;;;;;10.20;63.30;;;;;;5073700;28;19995;-68
2021/12/17 04:43:33;;;;;;;;;;;10.20;63.30;;;;;;5072075;28;19923;-68
2021/12/17 04:59:36;;;;;;;;;;;10.20;63.10;;;;;;5053704;28;20030;-68
2021/12/17 05:02:03;;;;;;;;;;;10.20;63.10;;;;;;5053620;28;19923;-68
2021/12/17 05:04:29;;;;;;;;;;;10.20;63.10;;;;;;5053284;28;19913;-68
2021/12/17 05:06:54;;;;;;;;;;;10.20;63.10;;;;;;5053468;28;20003;-68
2021/12/17 05:09:41;;;;;;;;;;;10.20;63.10;;;;;;5054339;28;19913;-68
2021/12/17 05:20:39;;;;;;;;;;;10.20;63.10;;;;;;5053480;28;19916;-68
2021/12/17 05:23:05;;;;;;;;;;;10.20;63.10;;;;;;5052800;28;19971;-68
2021/12/17 05:25:30;;;;;;;;;;;10.20;63.00;;;;;;5053056;28;20375;-68
2021/12/17 05:28:00;;;;;;;;;;;10.20;63.00;;;;;;5053040;28;19916;-68
2021/12/17 05:30:30;;;;;;;;;;;10.20;63.10;;;;;;5053243;28;19908;-68
2021/12/17 05:32:56;;;;;;;;;;;10.30;63.10;;;;;;5052634;28;19916;-68
2021/12/17 05:35:22;;;;;;;;;;;10.30;63.90;;;;;;5072754;28;20257;-68
2021/12/17 05:37:50;;;;;;;;;;;10.30;63.10;;;;;;5073017;28;19995;-68
2021/12/17 05:40:16;;;;;;;;;;;10.30;63.00;;;;;;5072928;28;19973;-68
2021/12/17 05:42:42;;;;;;;;;;;10.30;62.90;;;;;;5072947;28;20331;-68
2021/12/17 05:45:21;;;;;;;;;;;10.30;62.80;;;;;;5053651;28;19963;-68
2021/12/17 05:47:47;;;;;;;;;;;10.30;62.80;;;;;;5052807;28;19909;-68
2021/12/17 05:50:13;;;;;;;;;;;10.30;62.80;;;;;;5051545;28;19909;-68
2021/12/17 05:52:39;;;;;;;;;;;10.30;62.70;;;;;;5052806;28;20346;-68
2021/12/17 05:55:04;;;;;;;;;;;10.30;62.60;;;;;;5067300;28;19912;-68
2021/12/17 05:57:30;;;;;;;;;;;10.30;62.50;;;;;;5072891;28;19942;-68
2021/12/17 05:59:56;;;;;;;;;;;10.30;62.40;;;;;;5072758;28;19962;-68
2021/12/17 06:02:22;;;;;;;;;;;10.30;62.50;;;;;;5072881;28;19963;-68
2021/12/17 06:04:47;;;;;;;;;;;10.30;62.40;;;;;;5057888;28;19924;-68
2021/12/17 06:07:13;;;;;;;;;;;10.30;62.30;;;;;;5052678;28;19909;-68
2021/12/17 06:09:39;;;;;;;;;;;10.30;62.30;;;;;;5052678;28;19963;-68
2021/12/17 06:12:04;;;;;;;;;;;10.30;62.40;;;;;;5052593;28;19915;-68
2021/12/17 06:14:30;;;;;;;;;;;10.20;62.30;;;;;;5063613;28;19912;-68
2021/12/17 06:16:57;;;;;;;;;;;10.30;63.10;;;;;;5072311;28;19916;-68
2021/12/17 06:19:22;;;;;;;;;;;10.20;62.30;;;;;;5070452;28;19909;-69
2021/12/17 06:21:48;;;;;;;;;;;10.20;62.40;;;;;;5052575;28;20000;-68
2021/12/17 06:24:14;;;;;;;;;;;10.20;62.30;;;;;;5060232;28;19917;-68
2021/12/17 06:26:40;;;;;;;;;;;10.20;62.30;;;;;;5072446;28;19909;-69
2021/12/17 06:29:06;;;;;;;;;;;10.20;62.30;;;;;;5072324;28;19928;-69
2021/12/17 06:31:31;;;;;;;;;;;10.20;62.30;;;;;;5072387;28;19916;-68
2021/12/17 06:33:57;;;;;;;;;;;10.20;62.30;;;;;;5066185;28;20015;-68
2021/12/17 06:36:23;;;;;;;;;;;10.20;62.30;;;;;;5052402;28;20273;-69
2021/12/17 06:38:48;;;;;;;;;;;10.30;62.40;;;;;;5052386;28;19909;-68
2021/12/17 06:41:14;;;;;;;;;;;10.30;62.40;;;;;;5052142;28;19913;-68
2021/12/17 06:43:42;;;;;;;;;;;10.30;62.40;;;;;;5052064;28;19979;-68
2021/12/17 06:46:31;;;;;;;;;;;10.30;62.40;;;;;;5052399;28;19916;-69
2021/12/17 06:49:14;;;;;;;;;;;10.30;62.20;;;;;;5052095;28;19909;-68
2021/12/17 07:10:44;;;;;;;;;;;10.30;61.70;;;;;;5075794;28;19958;-69
2021/12/17 07:21:24;;;;;;;;;;;10.30;61.60;;;;;;5055516;28;19917;-69
2021/12/17 07:24:50;;;;;;;;;;;10.30;61.60;;;;;;5055476;28;20398;-69
2021/12/17 07:32:19;;;;;;;;;;;10.30;61.40;;;;;;5055449;28;20380;-69
2021/12/17 07:39:39;;;;;;;;;;;10.30;61.40;;;;;;5055126;28;19987;-69
2021/12/17 07:42:05;;;;;;;;;;;10.20;61.10;;;;;;5055096;28;20433;-69
2021/12/17 07:44:31;;;;;;;;;;;10.20;60.90;;;;;;5055094;28;19963;-68
2021/12/17 07:46:56;;;;;;;;;;;10.20;60.80;;;;;;5054936;28;19909;-69
2021/12/17 07:49:22;;;;;;;;;;;10.20;60.70;;;;;;5055137;28;20359;-69
2021/12/17 07:51:48;;;;;;;;;;;10.20;60.70;;;;;;5054957;28;19909;-69
2021/12/17 07:54:13;;;;;;;;;;;10.10;60.70;;;;;;5054961;28;19909;-68
2021/12/17 07:56:39;;;;;;;;;;;10.10;60.80;;;;;;5054969;28;19909;-69
2021/12/17 07:59:05;;;;;;;;;;;10.10;60.70;;;;;;5054724;28;19908;-68
2021/12/17 08:01:31;;;;;;;;;;;10.10;60.70;;;;;;5054730;28;20298;-69
2021/12/17 08:03:56;;;;;;;;;;;10.10;60.70;;;;;;5054425;28;19913;-69
2021/12/17 08:06:22;;;;;;;;;;;10.10;60.70;;;;;;5055023;28;20000;-69
2021/12/17 08:08:48;;;;;;;;;;;10.10;60.80;;;;;;5053769;28;19909;-69
2021/12/17 08:11:13;;;;;;;;;;;10.10;60.70;;;;;;5054501;28;19997;-69
2021/12/17 08:13:41;;;;;;;;;;;10.10;60.60;;;;;;5054325;28;19904;-69
2021/12/17 08:16:34;;;;;;;;;;;10.00;60.40;;;;;;5054912;28;19909;-69
2021/12/17 08:29:44;;;;;;;;;;;10.20;61.10;;;;;;5054499;28;19923;-68
2021/12/17 08:32:10;;;;;;;;;;;10.20;60.90;;;;;;5052737;28;19909;-69
2021/12/17 08:34:36;;;;;;;;;;;10.20;60.90;;;;;;5054033;28;19992;-69
2021/12/17 08:37:02;;;;;;;;;;;10.30;61.00;;;;;;5053897;28;20054;-69
2021/12/17 08:39:30;;;;;;;;;;;10.30;60.90;;;;;;5053838;28;19920;-69
2021/12/17 08:41:56;;;;;;;;;;;10.30;60.90;;;;;;5053568;28;19916;-69
2021/12/17 08:44:22;;;;;;;;;;;10.40;60.90;;;;;;5053691;28;19912;-69
2021/12/17 08:46:48;;;;;;;;;;;10.40;60.90;;;;;;5053748;28;20302;-69
2021/12/17 08:49:13;;;;;;;;;;;10.40;61.00;;;;;;5053547;28;19916;-68
2021/12/17 08:51:40;;;;;;;;;;;10.50;61.00;;;;;;5053786;28;19909;-69
2021/12/17 08:54:06;;;;;;;;;;;10.50;61.00;;;;;;5053500;28;20382;-69
2021/12/17 08:56:36;;;;;;;;;;;10.60;60.90;;;;;;5053787;28;19935;-69
2021/12/17 08:59:03;;;;;;;;;;;10.60;60.90;;;;;;5053454;28;19909;-69
2021/12/17 09:01:29;;;;;;;;;;;10.60;60.70;;;;;;5053393;28;19909;-70
2021/12/17 09:03:55;;;;;;;;;;;10.70;60.60;;;;;;5068941;28;19912;-69
2021/12/17 09:06:24;;;;;;;;;;;10.70;60.60;;;;;;5073003;28;19912;-69
2021/12/17 09:08:54;;;;;;;;;;;10.70;60.50;;;;;;5070960;28;20414;-69
2021/12/17 09:11:19;;;;;;;;;;;10.70;60.10;;;;;;5070049;28;19999;-69
2021/12/17 09:13:45;;;;;;;;;;;10.70;59.90;;;;;;5061959;28;19999;-69
2021/12/17 09:16:10;;;;;;;;;;;10.70;59.80;;;;;;5062773;28;19908;-69
2021/12/17 09:18:36;;;;;;;;;;;10.70;59.90;;;;;;5065215;28;19921;-69
2021/12/17 09:21:02;;;;;;;;;;;10.70;59.70;;;;;;5061713;28;20043;-69
2021/12/17 09:23:27;;;;;;;;;;;10.70;59.70;;;;;;5053065;28;19924;-69
2021/12/17 09:25:53;;;;;;;;;;;10.70;59.60;;;;;;5053229;28;20261;-69
2021/12/17 09:28:18;;;;;;;;;;;10.60;59.60;;;;;;5060692;28;20385;-68
2021/12/17 09:30:44;;;;;;;;;;;10.70;59.60;;;;;;5073237;28;19920;-69
2021/12/17 09:33:10;;;;;;;;;;;10.60;59.50;;;;;;5072868;28;20370;-69
2021/12/17 09:35:35;;;;;;;;;;;10.60;59.50;;;;;;5068350;28;19916;-69
2021/12/17 09:38:01;;;;;;;;;;;10.50;59.50;;;;;;5055646;28;19966;-69
2021/12/17 09:40:26;;;;;;;;;;;10.50;59.60;;;;;;5052863;28;19915;-69
2021/12/17 09:42:52;;;;;;;;;;;10.50;59.60;;;;;;5056982;28;19966;-69
2021/12/17 09:45:18;;;;;;;;;;;10.40;59.50;;;;;;5054026;28;19989;-69
2021/12/17 09:47:45;;;;;;;;;;;10.40;59.60;;;;;;5052743;28;20016;-69
2021/12/17 09:50:11;;;;;;;;;;;10.40;59.70;;;;;;5061920;28;20010;-69
2021/12/17 09:52:37;;;;;;;;;;;10.40;59.90;;;;;;5072972;28;20297;-69
2021/12/17 09:55:04;;;;;;;;;;;10.40;59.80;;;;;;5064556;28;19915;-69
2021/12/17 09:57:35;;;;;;;;;;;10.50;59.90;;;;;;5056379;28;19913;-69
2021/12/17 10:00:06;;;;;;;;;;;10.50;60.00;;;;;;5056467;28;20118;-69
2021/12/17 10:02:32;;;;;;;;;;;10.60;60.40;;;;;;5071924;28;20289;-70
2021/12/17 10:04:57;;;;;;;;;;;10.70;60.10;;;;;;5078889;28;19916;-69
2021/12/17 10:07:28;;;;;;;;;;;10.70;60.00;;;;;;5092863;28;19913;-70
2021/12/17 10:09:55;;;;;;;;;;;10.80;59.90;;;;;;5081508;28;19908;-69
2021/12/17 10:12:25;;;;;;;;;;;10.90;59.90;;;;;;5067618;28;19912;-70
2021/12/17 10:15:08;;;;;;;;;;;10.90;59.50;;;;;;5053987;28;20133;-69
2021/12/17 10:17:35;;;;;;;;;;;10.80;59.20;;;;;;5069733;28;19920;-68
2021/12/17 10:20:03;;;;;;;;;;;10.80;59.10;;;;;;5062250;28;19962;-68
2021/12/17 10:22:31;;;;;;;;;;;10.80;59.10;;;;;;5056492;28;19909;-68
2021/12/17 10:25:02;;;;;;;;;;;10.80;59.10;;;;;;5054946;28;19920;-68
2021/12/17 10:27:30;;;;;;;;;;;10.80;59.00;;;;;;5061033;28;20274;-68
2021/12/17 10:29:56;;;;;;;;;;;10.80;59.10;;;;;;5066637;28;19908;-68
2021/12/17 10:32:24;;;;;;;;;;;10.80;59.20;;;;;;5057922;28;19936;-70
2021/12/17 10:35:20;;;;;;;;;;;10.80;59.30;;;;;;5060261;28;19917;-69
2021/12/17 10:37:55;;;;;;;;;;;10.80;59.30;;;;;;5068349;28;19912;-69
2021/12/17 10:40:26;;;;;;;;;;;10.80;59.40;;;;;;5064721;28;19909;-68
2021/12/17 10:43:00;;;;;;;;;;;10.90;59.50;;;;;;5060164;28;20029;-68
2021/12/17 10:45:29;;;;;;;;;;;10.90;59.60;;;;;;5065213;28;20028;-69
2021/12/17 10:51:13;;;;;;;;;;;11.10;59.70;;;;;;5074883;28;20054;-68
2021/12/17 10:53:46;;;;;;;;;;;11.30;59.70;;;;;;5063764;28;19970;-68
2021/12/17 10:56:14;;;;;;;;;;;11.40;59.50;;;;;;5057788;28;19958;-69
2021/12/17 10:58:51;;;;;;;;;;;11.50;59.20;;;;;;5056012;28;19916;-68
2021/12/17 11:01:17;;;;;;;;;;;11.60;59.20;;;;;;5064620;28;19965;-69
2021/12/17 11:03:43;;;;;;;;;;;11.60;58.70;;;;;;5073680;28;19938;-69
2021/12/17 11:06:09;;;;;;;;;;;11.60;58.50;;;;;;5073599;28;19920;-69
2021/12/17 11:08:37;;;;;;;;;;;11.60;58.20;;;;;;5074446;28;19905;-69
2021/12/17 11:11:09;;;;;;;;;;;11.60;58.00;;;;;;5073586;28;19942;-69
2021/12/17 11:13:36;;;;;;;;;;;11.50;57.80;;;;;;5056526;28;19927;-69
2021/12/17 11:16:02;;;;;;;;;;;11.50;57.80;;;;;;5062361;28;19924;-69
2021/12/17 11:18:28;;;;;;;;;;;11.40;57.70;;;;;;5075407;28;19925;-69
2021/12/17 11:20:55;;;;;;;;;;;11.40;58.00;;;;;;5074758;28;19912;-69
2021/12/17 11:23:22;;;;;;;;;;;11.40;58.10;;;;;;5075170;28;19915;-68
2021/12/17 11:25:48;;;;;;;;;;;11.40;58.20;;;;;;5062308;28;19913;-69
2021/12/17 11:28:15;;;;;;;;;;;11.40;58.30;;;;;;5059885;28;20765;-68
2021/12/17 11:30:42;;;;;;;;;;;11.40;58.00;;;;;;5058469;28;19912;-68
2021/12/17 11:33:08;;;;;;;;;;;11.50;58.20;;;;;;5073743;28;20231;-68
2021/12/17 11:35:35;;;;;;;;;;;11.60;58.40;;;;;;5061953;28;19939;-69
2021/12/17 11:38:04;;;;;;;;;;;11.70;58.30;;;;;;5066665;28;20284;-69
2021/12/17 11:40:31;;;;;;;;;;;11.80;58.20;;;;;;5059843;28;19921;-69
2021/12/17 11:43:15;;;;;;;;;;;11.90;58.30;;;;;;5074141;28;20010;-69
2021/12/17 11:45:42;;;;;;;;;;;12.10;58.20;;;;;;5058918;28;19939;-69
2021/12/17 11:48:19;;;;;;;;;;;12.20;57.90;;;;;;5054665;28;19908;-69
2021/12/17 11:50:46;;;;;;;;;;;12.30;57.70;;;;;;5055770;28;19920;-69
2021/12/17 11:53:21;;;;;;;;;;;12.40;57.30;;;;;;5063413;28;19962;-69
2021/12/17 11:55:54;;;;;;;;;;;12.40;57.10;;;;;;5072858;28;20374;-69
2021/12/17 11:58:40;;;;;;;;;;;12.50;56.90;;;;;;5061402;28;19913;-69
2021/12/17 12:01:05;;;;;;;;;;;12.60;56.90;;;;;;5070467;28;19920;-68
2021/12/17 12:03:32;;;;;;;;;;;12.60;56.50;;;;;;5074189;28;19913;-68
2021/12/17 12:05:59;;;;;;;;;;;12.60;56.50;;;;;;5074307;28;19908;-68
2021/12/17 12:08:32;;;;;;;;;;;12.60;56.30;;;;;;5071653;28;20007;-68
2021/12/17 12:11:05;;;;;;;;;;;12.70;56.40;;;;;;5055633;28;19960;-69
2021/12/17 12:13:35;;;;;;;;;;;12.60;56.30;;;;;;5066531;28;19991;-69
2021/12/17 12:16:03;;;;;;;;;;;12.60;56.30;;;;;;5062952;28;20126;-69
2021/12/17 12:18:47;;;;;;;;;;;12.70;56.30;;;;;;5059025;28;20373;-68
2021/12/17 12:21:16;;;;;;;;;;;12.70;56.00;;;;;;5069543;28;19920;-68
2021/12/17 12:23:42;;;;;;;;;;;12.70;56.70;;;;;;5058989;28;20352;-69
2021/12/17 12:26:16;;;;;;;;;;;12.80;56.10;;;;;;5054378;28;19932;-69
2021/12/17 12:28:42;;;;;;;;;;;12.80;55.80;;;;;;5065633;28;19915;-68
2021/12/17 12:31:08;;;;;;;;;;;12.80;56.00;;;;;;5066922;28;20278;-69
2021/12/17 12:33:33;;;;;;;;;;;12.80;55.80;;;;;;5067683;28;19974;-68
2021/12/17 12:35:59;;;;;;;;;;;12.80;55.70;;;;;;5068456;28;20366;-68
2021/12/17 12:38:31;;;;;;;;;;;12.80;55.50;;;;;;5072321;28;20290;-69
2021/12/17 12:41:00;;;;;;;;;;;12.80;55.30;;;;;;5058259;28;19913;-68
2021/12/17 12:43:30;;;;;;;;;;;12.80;55.30;;;;;;5055560;28;19908;-69
2021/12/17 12:45:56;;;;;;;;;;;12.70;55.20;;;;;;5058616;28;19913;-68
2021/12/17 12:48:33;;;;;;;;;;;12.70;55.20;;;;;;5053401;28;19917;-70
2021/12/17 12:51:19;;;;;;;;;;;12.70;55.20;;;;;;5064261;28;19919;-68
2021/12/17 12:54:01;;;;;;;;;;;12.70;55.20;;;;;;5055509;28;19913;-69
2021/12/17 12:56:27;;;;;;;;;;;12.60;55.20;;;;;;5063701;28;20515;-69
2021/12/17 12:58:53;;;;;;;;;;;12.60;55.30;;;;;;5063580;28;19916;-72
2021/12/17 13:01:19;;;;;;;;;;;12.60;55.20;;;;;;5066963;28;19913;-72
2021/12/17 13:03:45;;;;;;;;;;;12.60;55.20;;;;;;5067754;28;19924;-67
2021/12/17 13:06:16;;;;;;;;;;;12.50;55.10;;;;;;5062664;28;19909;-68
2021/12/17 13:08:42;;;;;;;;;;;12.50;55.10;;;;;;5067586;28;19924;-66
2021/12/17 13:11:08;;;;;;;;;;;12.50;55.10;;;;;;5056087;28;20297;-69
2021/12/17 13:13:42;;;;;;;;;;;12.40;54.90;;;;;;5072083;28;19974;-69
2021/12/17 13:24:13;;;;;;;;;;;12.30;55.00;;;;;;5058965;28;19923;-69
2021/12/17 13:26:49;;;;;;;;;;;12.30;55.00;;;;;;5053116;28;19908;-69
2021/12/17 13:29:16;;;;;;;;;;;12.30;55.00;;;;;;5051891;28;19915;-69
2021/12/17 13:31:51;;;;;;;;;;;12.20;54.90;;;;;;5053688;28;19909;-69
2021/12/17 13:34:20;;;;;;;;;;;12.20;54.90;;;;;;5053085;28;20378;-69
2021/12/17 13:36:51;;;;;;;;;;;12.20;54.90;;;;;;5053093;28;20011;-69
2021/12/17 13:39:16;;;;;;;;;;;12.20;54.90;;;;;;5053056;28;19996;-69
2021/12/17 13:41:44;;;;;;;;;;;12.20;54.90;;;;;;5053078;28;19953;-69
2021/12/17 13:44:25;;;;;;;;;;;12.20;54.80;;;;;;5072442;28;20003;-69
2021/12/17 13:46:51;;;;;;;;;;;12.20;54.80;;;;;;5073438;28;19909;-69
2021/12/17 13:49:17;;;;;;;;;;;12.10;54.50;;;;;;5073207;28;20281;-67
2021/12/17 13:51:43;;;;;;;;;;;12.10;54.50;;;;;;5071714;28;19909;-69
2021/12/17 13:54:09;;;;;;;;;;;12.00;54.50;;;;;;5053133;28;19920;-67
2021/12/17 13:56:34;;;;;;;;;;;12.00;54.30;;;;;;5052763;28;20401;-68
2021/12/17 13:59:03;;;;;;;;;;;11.90;54.30;;;;;;5052663;28;19912;-68
2021/12/17 14:01:29;;;;;;;;;;;11.90;54.40;;;;;;5060221;28;19918;-68
2021/12/17 14:03:55;;;;;;;;;;;11.80;54.30;;;;;;5072765;28;20305;-68
2021/12/17 14:06:27;;;;;;;;;;;11.70;54.30;;;;;;5074769;28;20369;-68
2021/12/17 14:08:53;;;;;;;;;;;11.50;54.20;;;;;;5065693;28;20006;-68
2021/12/17 14:11:25;;;;;;;;;;;11.40;54.30;;;;;;5063952;28;19974;-68
2021/12/17 14:13:51;;;;;;;;;;;11.30;54.50;;;;;;5075581;28;20301;-68
2021/12/17 14:16:33;;;;;;;;;;;11.20;54.40;;;;;;5076255;28;19909;-68
2021/12/17 14:19:00;;;;;;;;;;;11.10;54.50;;;;;;5076839;28;19920;-68
2021/12/17 14:21:27;;;;;;;;;;;11.00;54.70;;;;;;5068406;28;19919;-68
2021/12/17 14:23:52;;;;;;;;;;;10.80;54.70;;;;;;5068403;28;20281;-68
2021/12/17 14:26:25;;;;;;;;;;;10.70;54.80;;;;;;5065151;28;19913;-68
2021/12/17 14:28:50;;;;;;;;;;;10.60;55.00;;;;;;5068414;28;20375;-68
2021/12/17 14:31:16;;;;;;;;;;;10.50;55.10;;;;;;5056395;28;19909;-69
2021/12/17 14:33:46;;;;;;;;;;;10.40;55.20;;;;;;5055070;28;19919;-68
2021/12/17 14:36:12;;;;;;;;;;;10.20;55.40;;;;;;5064275;28;19913;-65
2021/12/17 14:38:52;;;;;;;;;;;10.20;55.60;;;;;;5062354;28;20020;-67
2021/12/17 14:41:20;;;;;;;;;;;10.10;55.70;;;;;;5057723;28;19999;-67
2021/12/17 14:43:52;;;;;;;;;;;10.00;55.80;;;;;;5064447;28;19916;-67
2021/12/17 14:46:24;;;;;;;;;;;9.90;55.90;;;;;;5054976;28;19999;-67
2021/12/17 15:02:46;;;;;;;;;;;9.70;56.90;;;;;;5056168;28;19915;-67
2021/12/17 15:05:14;;;;;;;;;;;9.70;57.00;;;;;;5055872;28;19913;-67
2021/12/17 15:07:40;;;;;;;;;;;9.70;57.10;;;;;;5055720;28;19971;-67
2021/12/17 15:10:07;;;;;;;;;;;9.70;57.10;;;;;;5055704;28;19909;-67
2021/12/17 15:15:00;;;;;;;;;;;9.60;57.20;;;;;;5055888;28;19956;-67
2021/12/17 15:17:25;;;;;;;;;;;9.60;57.30;;;;;;5055057;28;19924;-67
2021/12/17 15:19:51;;;;;;;;;;;9.60;57.40;;;;;;5055540;28;19909;-67
2021/12/17 15:22:16;;;;;;;;;;;9.70;57.50;;;;;;5055572;28;19905;-67
2021/12/17 15:24:42;;;;;;;;;;;9.70;57.50;;;;;;5055219;28;19935;-67
2021/12/17 15:27:08;;;;;;;;;;;9.70;57.50;;;;;;5055442;28;19932;-67
2021/12/17 15:29:34;;;;;;;;;;;9.70;57.50;;;;;;5054045;28;20375;-67
2021/12/17 15:31:59;;;;;;;;;;;9.70;57.40;;;;;;5055396;28;19909;-67
2021/12/17 15:34:25;;;;;;;;;;;9.70;57.50;;;;;;5055334;28;19908;-67
2021/12/17 15:36:53;;;;;;;;;;;9.70;57.50;;;;;;5055289;28;19908;-67
2021/12/17 15:39:18;;;;;;;;;;;9.70;57.50;;;;;;5055202;28;19909;-67
2021/12/17 15:41:44;;;;;;;;;;;9.70;57.50;;;;;;5055117;28;19909;-67
2021/12/17 15:44:10;;;;;;;;;;;9.70;57.50;;;;;;5055029;28;19917;-67
2021/12/17 15:46:37;;;;;;;;;;;9.70;57.50;;;;;;5055158;28;19909;-67
2021/12/17 15:49:03;;;;;;;;;;;9.60;57.50;;;;;;5055055;28;20397;-67
2021/12/17 15:51:29;;;;;;;;;;;9.70;57.60;;;;;;5055057;28;19959;-67
2021/12/17 15:53:55;;;;;;;;;;;9.60;57.50;;;;;;5055000;28;19909;-67
2021/12/17 15:56:21;;;;;;;;;;;9.60;57.50;;;;;;5054947;28;20296;-67
2021/12/17 15:58:47;;;;;;;;;;;9.50;57.40;;;;;;5054730;28;19913;-67
2021/12/17 16:01:13;;;;;;;;;;;9.50;57.40;;;;;;5054825;28;19916;-67
2021/12/17 16:03:42;;;;;;;;;;;9.40;57.50;;;;;;5054664;28;19912;-67
2021/12/17 16:06:09;;;;;;;;;;;9.40;57.60;;;;;;5054706;28;20425;-67
2021/12/17 16:08:38;;;;;;;;;;;9.30;57.60;;;;;;5053258;28;19909;-66
2021/12/17 16:16:54;;;;;;;;;;;9.00;57.80;;;;;;5054414;28;19990;-66
2021/12/17 16:22:04;;;;;;;;;;;8.90;58.00;;;;;;5054474;28;19939;-67
2021/12/17 16:24:29;;;;;;;;;;;8.80;58.10;;;;;;5054418;28;19917;-67
2021/12/17 16:26:55;;;;;;;;;;;8.80;58.30;;;;;;5054440;28;20390;-67
2021/12/17 16:29:21;;;;;;;;;;;8.80;58.30;;;;;;5053564;28;19912;-67
2021/12/17 16:31:47;;;;;;;;;;;8.70;58.30;;;;;;5054249;28;19909;-67
2021/12/17 16:34:14;;;;;;;;;;;8.70;58.50;;;;;;5053030;28;19912;-67
2021/12/17 16:36:41;;;;;;;;;;;8.60;58.60;;;;;;5054259;28;20385;-67
2021/12/17 16:39:07;;;;;;;;;;;8.60;58.60;;;;;;5054101;28;19909;-67
2021/12/17 16:41:33;;;;;;;;;;;8.60;58.60;;;;;;5054043;28;20286;-67
2021/12/17 16:44:02;;;;;;;;;;;8.50;58.80;;;;;;5053876;28;19913;-67
2021/12/17 16:49:04;;;;;;;;;;;8.50;58.90;;;;;;5054136;28;19948;-67
2021/12/17 16:51:29;;;;;;;;;;;8.50;58.90;;;;;;5053916;28;19995;-67
2021/12/17 16:53:57;;;;;;;;;;;8.50;58.90;;;;;;5053934;28;20345;-67
2021/12/17 16:56:23;;;;;;;;;;;8.50;58.90;;;;;;5053858;28;20380;-66
2021/12/17 16:58:49;;;;;;;;;;;8.40;58.90;;;;;;5053817;28;19909;-66
2021/12/17 17:01:14;;;;;;;;;;;8.40;58.90;;;;;;5053716;28;19916;-67
2021/12/17 17:03:40;;;;;;;;;;;8.40;59.00;;;;;;5053563;28;20366;-67
2021/12/17 17:06:09;;;;;;;;;;;8.40;59.00;;;;;;5053545;28;19909;-67
2021/12/17 17:08:35;;;;;;;;;;;8.30;58.90;;;;;;5053594;28;19916;-67
2021/12/17 17:11:04;;;;;;;;;;;8.30;58.90;;;;;;5053539;28;19909;-67
2021/12/17 17:13:33;;;;;;;;;;;8.30;59.00;;;;;;5053414;28;19909;-67
2021/12/17 17:16:04;;;;;;;;;;;8.30;59.00;;;;;;5053681;28;19916;-67
2021/12/17 17:18:31;;;;;;;;;;;8.20;58.90;;;;;;5053198;28;19921;-67
2021/12/17 17:20:58;;;;;;;;;;;8.20;59.00;;;;;;5053478;28;19909;-67
2021/12/17 17:23:24;;;;;;;;;;;8.20;59.10;;;;;;5053344;28;19909;-67
2021/12/17 17:25:50;;;;;;;;;;;8.10;59.10;;;;;;5053091;28;20263;-67
2021/12/17 17:28:17;;;;;;;;;;;8.10;59.10;;;;;;5053332;28;20003;-67
2021/12/17 17:30:43;;;;;;;;;;;8.10;59.20;;;;;;5053239;28;19912;-67
2021/12/17 17:33:09;;;;;;;;;;;8.10;59.30;;;;;;5053075;28;19909;-67
2021/12/17 17:35:35;;;;;;;;;;;8.10;59.40;;;;;;5053146;28;19916;-67
2021/12/17 17:38:02;;;;;;;;;;;8.10;59.40;;;;;;5051787;28;19915;-67
2021/12/17 17:40:28;;;;;;;;;;;8.10;59.50;;;;;;5053020;28;20280;-66
2021/12/17 17:42:54;;;;;;;;;;;8.10;59.50;;;;;;5051669;28;19908;-67